createdAt,value
2019-01-19T00:03:03.411Z,5.87
2019-01-19T00:05:29.992Z,5.95
2019-01-19T00:07:56.562Z,5.40
2019-01-19T00:10:23.200Z,5.35
2019-01-19T00:12:49.773Z,5.62
2019-01-19T00:15:16.345Z,5.03
2019-01-19T00:17:42.971Z,5.17
2019-01-19T00:20:09.550Z,5.22
2019-01-19T00:22:36.125Z,5.53
2019-01-19T00:25:02.756Z,5.35
2019-01-19T00:27:29.333Z,5.20
2019-01-19T00:29:55.914Z,4.75
2019-01-19T00:32:22.598Z,5.37
2019-01-19T00:34:49.182Z,5.87
2019-01-19T00:37:15.784Z,5.62
2019-01-19T00:39:42.409Z,6.15
2019-01-19T00:42:08.992Z,5.25
2019-01-19T00:44:35.575Z,5.62
2019-01-19T00:47:02.227Z,5.30
2019-01-19T00:49:28.817Z,5.80
2019-01-19T00:51:55.442Z,4.62
2019-01-19T00:54:22.149Z,5.97
2019-01-19T00:56:48.733Z,5.20
2019-01-19T00:59:15.370Z,6.65
2019-01-19T01:01:42.226Z,4.87
2019-01-19T01:04:08.803Z,4.90
2019-01-19T01:06:35.429Z,5.08
2019-01-19T01:09:02.180Z,5.85
2019-01-19T01:11:28.764Z,5.10
2019-01-19T01:13:55.344Z,5.58
2019-01-19T01:16:22.024Z,5.17
2019-01-19T01:18:48.603Z,6.17
2019-01-19T01:21:15.212Z,5.45
2019-01-19T01:23:41.835Z,5.28
2019-01-19T01:26:08.427Z,5.30
2019-01-19T01:28:35.014Z,6.08
2019-01-19T01:31:02.216Z,5.37
2019-01-19T01:33:28.798Z,5.40
2019-01-19T01:35:55.375Z,5.35
2019-01-19T01:38:22.052Z,5.78
2019-01-19T01:40:48.670Z,5.65
2019-01-19T01:43:15.232Z,6.03
2019-01-19T01:45:41.856Z,6.25
2019-01-19T01:48:08.526Z,6.08
2019-01-19T01:50:35.111Z,5.62
2019-01-19T01:53:01.720Z,6.05
2019-01-19T01:55:28.303Z,5.78
2019-01-19T01:57:54.880Z,6.28
2019-01-19T02:00:21.815Z,6.22
2019-01-19T02:02:48.394Z,6.70
2019-01-19T02:05:14.963Z,5.95
2019-01-19T02:07:41.621Z,5.78
2019-01-19T02:10:08.196Z,5.50
2019-01-19T02:12:34.792Z,5.45
2019-01-19T02:15:01.412Z,5.60
2019-01-19T02:17:27.980Z,5.97
2019-01-19T02:19:54.558Z,6.33
2019-01-19T02:22:21.214Z,6.62
2019-01-19T02:24:47.836Z,6.05
2019-01-19T02:27:14.413Z,6.05
2019-01-19T02:29:41.020Z,6.53
2019-01-19T02:34:53.196Z,6.22
2019-01-19T02:37:19.816Z,6.20
2019-01-19T02:39:46.390Z,6.15
2019-01-19T02:42:13.037Z,6.08
2019-01-19T02:44:39.632Z,5.95
2019-01-19T02:47:06.209Z,6.17
2019-01-19T02:49:32.835Z,6.47
2019-01-19T02:51:59.435Z,5.75
2019-01-19T02:54:26.014Z,5.80
2019-01-19T02:56:52.639Z,7.00
2019-01-19T02:59:19.217Z,6.47
2019-01-19T03:01:45.817Z,6.42
2019-01-19T03:04:12.622Z,6.12
2019-01-19T03:06:39.268Z,5.97
2019-01-19T03:09:05.838Z,6.10
2019-01-19T03:11:32.461Z,6.42
2019-01-19T03:13:59.040Z,6.97
2019-01-19T03:16:25.614Z,6.75
2019-01-19T03:18:52.361Z,6.80
2019-01-19T03:21:18.946Z,6.28
2019-01-19T03:23:45.622Z,6.22
2019-01-19T03:26:12.275Z,6.47
2019-01-19T03:28:38.843Z,6.03
2019-01-19T03:31:05.445Z,6.03
2019-01-19T03:33:32.122Z,6.35
2019-01-19T03:36:04.294Z,6.65
2019-01-19T03:38:27.011Z,5.72
2019-01-19T03:40:53.671Z,6.20
2019-01-19T03:43:20.254Z,6.33
2019-01-19T03:45:46.830Z,6.08
2019-01-19T03:48:13.488Z,5.90
2019-01-19T03:50:40.115Z,6.87
2019-01-19T03:53:06.713Z,5.47
2019-01-19T03:55:33.336Z,5.58
2019-01-19T03:57:59.922Z,5.97
2019-01-19T04:00:26.498Z,5.70
2019-01-19T04:02:53.141Z,6.05
2019-01-19T04:05:19.774Z,6.15
2019-01-19T04:07:46.358Z,6.05
2019-01-19T04:10:13.011Z,6.50
2019-01-19T04:12:39.606Z,6.25
2019-01-19T04:15:06.183Z,6.85
2019-01-19T04:17:32.812Z,6.05
2019-01-19T04:19:59.384Z,6.17
2019-01-19T04:22:25.969Z,5.87
2019-01-19T04:24:52.606Z,5.22
2019-01-19T04:27:19.199Z,6.33
2019-01-19T04:29:45.779Z,5.83
2019-01-19T04:32:12.529Z,5.97
2019-01-19T04:34:39.108Z,5.60
2019-01-19T04:39:51.186Z,5.72
2019-01-19T04:42:17.760Z,5.00
2019-01-19T04:44:44.333Z,6.35
2019-01-19T04:47:10.972Z,5.95
2019-01-19T04:49:37.593Z,6.10
2019-01-19T04:52:04.212Z,5.67
2019-01-19T04:54:30.874Z,5.58
2019-01-19T04:56:57.447Z,5.90
2019-01-19T04:59:24.022Z,4.92
2019-01-19T05:01:50.653Z,6.10
2019-01-19T05:04:17.224Z,5.17
2019-01-19T05:06:43.826Z,5.03
2019-01-19T05:09:10.547Z,5.25
2019-01-19T05:11:37.204Z,5.85
2019-01-19T05:14:03.773Z,5.97
2019-01-19T05:16:30.433Z,5.87
2019-01-19T05:18:57.003Z,5.12
2019-01-19T05:21:23.588Z,5.40
2019-01-19T05:23:50.210Z,5.33
2019-01-19T05:26:16.779Z,5.17
2019-01-19T05:28:43.385Z,5.92
2019-01-19T05:31:10.011Z,5.35
2019-01-19T05:33:36.584Z,5.53
2019-01-19T05:36:03.159Z,6.35
2019-01-19T05:38:29.816Z,6.20
2019-01-19T05:40:56.395Z,5.33
2019-01-19T05:43:22.996Z,6.05
2019-01-19T05:45:49.603Z,6.03
2019-01-19T05:48:16.181Z,5.67
2019-01-19T05:50:42.762Z,5.92
2019-01-19T05:53:09.419Z,5.58
2019-01-19T05:55:36.031Z,5.70
2019-01-19T05:58:02.610Z,5.97
2019-01-19T06:00:29.334Z,6.33
2019-01-19T06:02:55.916Z,5.65
2019-01-19T06:05:22.492Z,6.40
2019-01-19T06:07:49.122Z,5.90
2019-01-19T06:10:15.693Z,6.15
2019-01-19T06:12:42.276Z,5.97
2019-01-19T06:15:08.889Z,6.50
2019-01-19T06:17:35.465Z,6.75
2019-01-19T06:20:02.081Z,6.92
2019-01-19T06:22:28.781Z,7.12
2019-01-19T06:24:55.359Z,6.80
2019-01-19T06:27:21.947Z,6.75
2019-01-19T06:29:48.567Z,6.72
2019-01-19T06:32:15.147Z,5.95
2019-01-19T06:34:41.719Z,6.70
2019-01-19T06:37:08.334Z,7.12
2019-01-19T06:39:34.911Z,5.95
2019-01-19T06:42:01.491Z,5.55
2019-01-19T06:44:28.151Z,7.00
2019-01-19T06:46:55.102Z,6.22
2019-01-19T06:49:21.669Z,5.95
2019-01-19T06:51:48.301Z,7.47
2019-01-19T06:54:14.885Z,6.33
2019-01-19T06:56:41.471Z,7.12
2019-01-19T06:59:08.113Z,6.62
2019-01-19T07:01:34.695Z,6.47
2019-01-19T07:04:01.292Z,7.37
2019-01-19T07:06:28.157Z,6.95
2019-01-19T07:08:54.818Z,6.42
2019-01-19T07:11:21.399Z,6.28
2019-01-19T07:13:48.025Z,7.15
2019-01-19T07:16:14.619Z,6.58
2019-01-19T07:18:41.309Z,6.92
2019-01-19T07:21:07.934Z,7.17
2019-01-19T07:23:34.524Z,7.03
2019-01-19T07:26:01.110Z,6.50
2019-01-19T07:28:27.995Z,6.75
2019-01-19T07:30:54.848Z,7.12
2019-01-19T07:33:21.423Z,6.42
2019-01-19T07:35:48.048Z,6.53
2019-01-19T07:38:14.627Z,6.95
2019-01-19T07:40:41.217Z,7.17
2019-01-19T07:43:07.851Z,7.35
2019-01-19T07:45:34.428Z,7.03
2019-01-19T07:48:01.007Z,7.15
2019-01-19T07:50:27.749Z,6.80
2019-01-19T07:52:54.318Z,7.90
2019-01-19T07:55:20.895Z,7.95
2019-01-19T07:57:47.532Z,7.97
2019-01-19T08:00:14.107Z,8.38
2019-01-19T08:02:40.700Z,8.53
2019-01-19T08:05:07.370Z,8.90
2019-01-19T08:07:33.970Z,8.18
2019-01-19T08:10:00.556Z,8.50
2019-01-19T08:12:27.207Z,7.92
2019-01-19T08:14:53.901Z,8.93
2019-01-19T08:17:20.522Z,9.78
2019-01-19T08:19:47.142Z,8.58
2019-01-19T08:22:13.716Z,8.40
2019-01-19T08:24:40.291Z,9.05
2019-01-19T08:27:06.958Z,8.23
2019-01-19T08:29:33.567Z,8.93
2019-01-19T08:32:01.337Z,7.42
2019-01-19T08:34:27.995Z,9.20
2019-01-19T08:36:54.592Z,8.80
2019-01-19T08:39:21.172Z,8.88
2019-01-19T08:41:47.798Z,8.38
2019-01-19T08:44:14.370Z,7.67
2019-01-19T08:46:40.958Z,8.50
2019-01-19T08:49:07.572Z,8.65
2019-01-19T08:51:34.169Z,8.55
2019-01-19T08:54:00.785Z,8.98
2019-01-19T08:56:27.432Z,9.63
2019-01-19T08:58:54.006Z,9.58
2019-01-19T09:01:20.592Z,8.48
2019-01-19T09:03:47.244Z,9.75
2019-01-19T09:06:13.820Z,9.88
2019-01-19T09:08:40.428Z,8.83
2019-01-19T09:11:07.057Z,9.55
2019-01-19T09:13:33.684Z,10.10
2019-01-19T09:16:00.280Z,10.63
2019-01-19T09:18:26.953Z,9.45
2019-01-19T09:20:53.598Z,10.60
2019-01-19T09:23:20.167Z,10.05
2019-01-19T09:25:46.843Z,10.28
2019-01-19T09:28:13.426Z,9.00
2019-01-19T09:30:39.993Z,9.68
2019-01-19T09:33:06.618Z,8.98
2019-01-19T09:35:33.200Z,10.28
2019-01-19T09:37:59.763Z,9.73
2019-01-19T09:40:26.463Z,10.63
2019-01-19T09:42:53.042Z,10.23
2019-01-19T09:45:19.611Z,9.78
2019-01-19T09:47:46.233Z,10.45
2019-01-19T09:50:12.820Z,9.43
2019-01-19T09:52:39.397Z,9.38
2019-01-19T09:55:06.036Z,10.18
2019-01-19T09:57:32.640Z,9.90
2019-01-19T09:59:59.211Z,10.15
2019-01-19T10:02:25.899Z,10.15
2019-01-19T10:04:52.479Z,9.93
2019-01-19T10:07:21.355Z,10.30
2019-01-19T10:09:49.028Z,9.38
2019-01-19T10:12:15.647Z,10.13
2019-01-19T10:14:42.220Z,10.05
2019-01-19T10:17:11.580Z,9.75
2019-01-19T10:19:38.232Z,9.40
2019-01-19T10:22:04.804Z,9.78
2019-01-19T10:24:31.784Z,9.55
2019-01-19T10:26:58.355Z,10.90
2019-01-19T10:29:24.930Z,10.48
2019-01-19T10:31:51.574Z,10.50
2019-01-19T10:34:18.154Z,8.70
2019-01-19T10:36:44.730Z,9.78
2019-01-19T10:39:11.353Z,9.28
2019-01-19T10:41:41.099Z,10.00
2019-01-19T10:44:06.237Z,9.33
2019-01-19T10:46:32.886Z,9.35
2019-01-19T10:49:00.197Z,9.75
2019-01-19T10:51:27.116Z,9.38
2019-01-19T10:53:53.758Z,9.28
2019-01-19T10:56:20.337Z,8.80
2019-01-19T10:58:46.911Z,9.25
2019-01-19T11:01:13.618Z,9.10
2019-01-19T11:03:40.199Z,9.88
2019-01-19T11:06:06.794Z,8.45
2019-01-19T11:08:33.527Z,9.93
2019-01-19T11:11:00.149Z,8.98
2019-01-19T11:13:26.730Z,9.73
2019-01-19T11:15:53.370Z,9.13
2019-01-19T11:18:20.016Z,8.65
2019-01-19T11:20:46.719Z,9.35
2019-01-19T11:23:13.923Z,8.73
2019-01-19T11:25:40.494Z,8.90
2019-01-19T11:28:07.786Z,8.60
2019-01-19T11:30:34.746Z,8.03
2019-01-19T11:33:01.351Z,7.85
2019-01-19T11:35:27.932Z,8.20
2019-01-19T11:37:54.595Z,8.05
2019-01-19T11:40:21.189Z,9.18
2019-01-19T11:42:47.767Z,7.83
2019-01-19T11:45:15.423Z,8.43
2019-01-19T11:47:42.075Z,8.13
2019-01-19T11:50:08.686Z,8.15
2019-01-19T11:52:35.583Z,8.60
2019-01-19T11:55:02.161Z,8.50
2019-01-19T11:57:28.746Z,7.58
2019-01-19T11:59:55.385Z,8.15
2019-01-19T12:02:21.968Z,8.35
2019-01-19T12:04:48.549Z,8.35
2019-01-19T12:07:15.173Z,8.83
2019-01-19T12:09:41.748Z,8.10
2019-01-19T12:12:08.380Z,8.15
2019-01-19T12:14:35.109Z,8.38
2019-01-19T12:17:01.688Z,7.42
2019-01-19T12:19:28.285Z,7.65
2019-01-19T12:21:54.932Z,7.67
2019-01-19T12:24:21.505Z,7.75
2019-01-19T12:26:48.102Z,7.78
2019-01-19T12:29:14.754Z,7.55
2019-01-19T12:31:41.325Z,9.05
2019-01-19T12:34:07.916Z,7.75
2019-01-19T12:36:34.581Z,9.18
2019-01-19T12:39:01.165Z,7.65
2019-01-19T12:41:27.728Z,7.65
2019-01-19T12:43:54.363Z,8.05
2019-01-19T12:46:20.943Z,8.68
2019-01-19T12:48:47.594Z,7.72
2019-01-19T12:51:14.230Z,7.97
2019-01-19T12:53:40.804Z,8.03
2019-01-19T12:56:07.458Z,8.08
2019-01-19T12:58:34.311Z,8.00
2019-01-19T13:01:00.932Z,8.55
2019-01-19T13:03:27.501Z,7.12
2019-01-19T13:05:54.137Z,7.47
2019-01-19T13:08:20.716Z,8.15
2019-01-19T13:10:47.321Z,6.75
2019-01-19T13:13:13.944Z,7.85
2019-01-19T13:15:40.505Z,8.15
2019-01-19T13:18:07.090Z,7.87
2019-01-19T13:20:33.728Z,7.72
2019-01-19T13:23:00.307Z,8.58
2019-01-19T13:25:26.871Z,7.10
2019-01-19T13:27:53.493Z,7.90
2019-01-19T13:30:20.076Z,7.95
2019-01-19T13:32:46.729Z,7.70
2019-01-19T13:35:13.353Z,7.47
2019-01-19T13:37:39.924Z,7.30
2019-01-19T13:40:06.500Z,7.67
2019-01-19T13:42:33.181Z,7.17
2019-01-19T13:44:59.803Z,7.42
2019-01-19T13:47:26.405Z,7.80
2019-01-19T13:49:53.021Z,7.42
2019-01-19T13:52:19.605Z,6.90
2019-01-19T13:54:46.184Z,7.50
2019-01-19T13:57:12.817Z,7.65
2019-01-19T13:59:39.401Z,6.97
2019-01-19T14:02:05.962Z,6.80
2019-01-19T14:04:32.596Z,8.00
2019-01-19T14:06:59.180Z,7.75
2019-01-19T14:09:25.763Z,7.50
2019-01-19T14:11:52.503Z,7.17
2019-01-19T14:14:19.085Z,7.53
2019-01-19T14:16:45.655Z,7.33
2019-01-19T14:19:12.292Z,6.78
2019-01-19T14:21:38.866Z,7.33
2019-01-19T14:24:05.441Z,7.72
2019-01-19T14:26:32.068Z,6.72
2019-01-19T14:28:58.642Z,7.25
2019-01-19T14:31:25.261Z,6.65
2019-01-19T14:33:51.930Z,7.25
2019-01-19T14:36:18.500Z,7.05
2019-01-19T14:38:45.077Z,7.80
2019-01-19T14:41:11.698Z,7.17
2019-01-19T14:43:38.275Z,7.30
2019-01-19T14:46:04.853Z,7.37
2019-01-19T14:48:31.556Z,7.22
2019-01-19T14:50:58.132Z,7.25
2019-01-19T14:53:24.709Z,6.75
2019-01-19T14:55:51.355Z,6.78
2019-01-19T14:58:18.048Z,7.03
2019-01-19T15:00:44.622Z,8.10
2019-01-19T15:03:11.254Z,8.03
2019-01-19T15:05:38.059Z,7.95
2019-01-19T15:08:04.651Z,7.80
2019-01-19T15:10:31.286Z,7.70
2019-01-19T15:12:57.857Z,7.22
2019-01-19T15:15:24.427Z,6.78
2019-01-19T15:17:51.143Z,7.50
2019-01-19T15:20:17.730Z,8.18
2019-01-19T15:22:44.342Z,8.15
2019-01-19T15:25:11.021Z,9.20
2019-01-19T15:27:38.257Z,8.83
2019-01-19T15:30:04.857Z,8.65
2019-01-19T15:32:31.476Z,7.92
2019-01-19T15:34:58.050Z,8.30
2019-01-19T15:37:24.646Z,8.25
2019-01-19T15:39:51.527Z,8.85
2019-01-19T15:42:18.160Z,8.70
2019-01-19T15:44:44.747Z,8.50
2019-01-19T15:47:11.372Z,9.35
2019-01-19T15:49:37.950Z,8.83
2019-01-19T15:52:04.524Z,9.15
2019-01-19T15:54:31.146Z,9.38
2019-01-19T15:56:57.724Z,8.68
2019-01-19T15:59:24.299Z,9.68
2019-01-19T16:01:50.956Z,10.13
2019-01-19T16:04:17.536Z,10.23
2019-01-19T16:06:44.110Z,10.60
2019-01-19T16:09:18.042Z,10.35
2019-01-19T16:11:39.314Z,10.15
2019-01-19T16:14:05.942Z,10.98
2019-01-19T16:16:32.564Z,13.72
2019-01-19T16:18:59.139Z,17.92
2019-01-19T16:21:25.982Z,20.88
2019-01-19T16:23:52.642Z,23.20
2019-01-19T16:26:19.269Z,27.67
2019-01-19T16:28:45.842Z,28.57
2019-01-19T16:31:12.508Z,29.72
2019-01-19T16:33:39.088Z,30.15
2019-01-19T16:36:05.671Z,31.62
2019-01-19T16:38:32.357Z,32.23
2019-01-19T16:40:59.055Z,33.05
2019-01-19T16:43:25.672Z,33.33
2019-01-19T16:45:52.289Z,34.33
2019-01-19T16:48:18.873Z,32.60
2019-01-19T16:50:45.490Z,34.70
2019-01-19T16:53:13.428Z,36.33
2019-01-19T16:55:40.010Z,35.58
2019-01-19T16:58:06.599Z,34.73
2019-01-19T17:00:33.725Z,36.80
2019-01-19T17:03:00.950Z,35.83
2019-01-19T17:05:27.800Z,38.53
2019-01-19T17:07:55.102Z,37.75
2019-01-19T17:10:21.675Z,37.15
2019-01-19T17:12:48.807Z,40.50
2019-01-19T17:15:15.623Z,39.15
2019-01-19T17:17:42.202Z,39.33
2019-01-19T17:20:08.773Z,40.28
2019-01-19T17:22:35.402Z,39.00
2019-01-19T17:25:02.004Z,43.87
2019-01-19T17:27:28.641Z,40.45
2019-01-19T17:29:55.278Z,41.53
2019-01-19T17:32:21.855Z,45.92
2019-01-19T17:34:48.431Z,44.45
2019-01-19T17:37:15.408Z,45.50
2019-01-19T17:39:41.992Z,44.60
2019-01-19T17:42:08.570Z,44.53
2019-01-19T17:44:35.211Z,45.00
2019-01-19T17:47:01.805Z,46.28
2019-01-19T17:49:28.416Z,46.58
2019-01-19T17:51:55.045Z,48.17
2019-01-19T17:54:21.626Z,49.88
2019-01-19T17:56:48.204Z,49.15
2019-01-19T17:59:14.886Z,49.08
2019-01-19T18:01:41.471Z,49.50
2019-01-19T18:04:08.054Z,49.85
2019-01-19T18:06:34.733Z,51.88
2019-01-19T18:09:01.354Z,50.45
2019-01-19T18:11:27.939Z,51.50
2019-01-19T18:13:54.568Z,51.40
2019-01-19T18:16:21.153Z,50.52
2019-01-19T18:18:47.740Z,51.37
2019-01-19T18:21:14.559Z,53.00
2019-01-19T18:23:41.136Z,51.02
2019-01-19T18:26:07.718Z,56.90
2019-01-19T18:28:34.386Z,54.15
2019-01-19T18:31:01.015Z,53.50
2019-01-19T18:33:27.579Z,55.65
2019-01-19T18:35:54.198Z,54.10
2019-01-19T18:38:20.782Z,53.20
2019-01-19T18:40:49.856Z,54.33
2019-01-19T18:43:16.566Z,57.05
2019-01-19T18:45:43.154Z,55.15
2019-01-19T18:48:09.734Z,54.80
2019-01-19T18:50:36.424Z,55.48
2019-01-19T18:53:03.052Z,57.95
2019-01-19T18:55:29.633Z,56.42
2019-01-19T18:57:56.263Z,59.00
2019-01-19T19:00:22.834Z,58.90
2019-01-19T19:02:49.418Z,57.80
2019-01-19T19:05:16.086Z,57.33
2019-01-19T19:07:42.655Z,60.52
2019-01-19T19:10:09.229Z,58.80
2019-01-19T19:12:35.879Z,61.90
2019-01-19T19:15:02.519Z,58.80
2019-01-19T19:17:29.087Z,60.65
2019-01-19T19:19:55.703Z,60.03
2019-01-19T19:22:23.599Z,63.92
2019-01-19T19:24:51.480Z,63.17
2019-01-19T19:27:19.503Z,64.42
2019-01-19T19:29:47.121Z,65.15
2019-01-19T19:32:24.799Z,66.95
2019-01-19T19:34:53.116Z,66.17
2019-01-19T19:37:21.027Z,66.07
2019-01-19T19:39:49.381Z,69.27
2019-01-19T19:42:17.547Z,68.78
2019-01-19T19:44:48.572Z,69.07
2019-01-19T19:47:16.633Z,70.05
2019-01-19T19:49:45.387Z,69.47
2019-01-19T19:52:13.865Z,70.42
2019-01-19T19:54:42.102Z,72.08
2019-01-19T19:57:13.435Z,73.72
2019-01-19T19:59:41.758Z,72.37
2019-01-19T20:02:16.242Z,73.72
2019-01-19T20:04:41.055Z,74.40
2019-01-19T20:07:09.814Z,72.67
2019-01-19T20:09:39.203Z,76.12
2019-01-19T20:12:08.016Z,76.17
2019-01-19T20:14:36.711Z,77.17
2019-01-19T20:17:04.964Z,77.50
2019-01-19T20:19:34.184Z,77.10
2019-01-19T20:22:02.704Z,80.03
2019-01-19T20:24:30.686Z,84.28
2019-01-19T20:26:59.052Z,83.47
2019-01-19T20:29:27.107Z,81.57
2019-01-19T20:31:55.200Z,83.30
2019-01-19T20:34:26.070Z,77.47
2019-01-19T20:36:53.872Z,82.82
2019-01-19T20:39:21.826Z,78.95
2019-01-19T20:41:50.351Z,83.95
2019-01-19T20:44:18.855Z,84.35
2019-01-19T20:46:51.619Z,82.27
2019-01-19T20:49:20.187Z,83.00
2019-01-19T20:51:48.212Z,92.75
2019-01-19T20:54:16.066Z,91.17
2019-01-19T20:56:43.900Z,91.72
2019-01-19T20:59:12.039Z,93.65
2019-01-19T21:01:40.385Z,93.52
2019-01-19T21:04:07.305Z,97.17
2019-01-19T21:06:33.880Z,90.22
2019-01-19T21:09:00.465Z,86.50
2019-01-19T21:11:27.090Z,83.92
2019-01-19T21:13:53.667Z,82.15
2019-01-19T21:16:20.276Z,79.85
2019-01-19T21:18:46.901Z,77.50
2019-01-19T21:21:13.555Z,78.85
2019-01-19T21:23:40.132Z,76.00
2019-01-19T21:26:06.753Z,76.60
2019-01-19T21:28:33.345Z,75.10
2019-01-19T21:30:59.937Z,73.57
2019-01-19T21:33:26.555Z,72.65
2019-01-19T21:35:53.153Z,77.50
2019-01-19T21:38:19.732Z,75.17
2019-01-19T21:40:46.361Z,77.32
2019-01-19T21:43:17.479Z,72.87
2019-01-19T21:45:45.232Z,75.72
2019-01-19T21:48:13.607Z,76.35
2019-01-19T21:50:41.305Z,76.67
2019-01-19T21:53:09.163Z,77.47
2019-01-19T21:55:38.840Z,77.72
2019-01-19T21:58:06.420Z,77.92
2019-01-19T22:03:37.892Z,75.52
2019-01-19T22:06:05.600Z,77.42
2019-01-19T22:08:32.943Z,74.87
2019-01-19T22:11:00.283Z,79.05
2019-01-19T22:13:27.634Z,74.82
2019-01-19T22:15:55.579Z,79.72
2019-01-19T22:18:23.653Z,77.00
2019-01-19T22:20:51.083Z,82.62
2019-01-19T22:23:18.921Z,81.25
2019-01-19T22:25:47.014Z,80.65
2019-01-19T22:28:18.085Z,79.37
2019-01-19T22:30:46.526Z,81.60
2019-01-19T22:33:14.356Z,83.25
2019-01-19T22:35:43.915Z,82.35
2019-01-19T22:38:13.225Z,84.17
2019-01-19T22:40:40.945Z,85.03
2019-01-19T22:43:08.503Z,83.05
2019-01-19T22:45:36.501Z,82.97
2019-01-19T22:48:03.952Z,85.80
2019-01-19T22:50:31.968Z,82.85
2019-01-19T22:53:01.064Z,84.37
2019-01-19T22:55:29.019Z,83.95
2019-01-19T22:58:02.599Z,84.32
2019-01-19T23:00:33.171Z,83.85
2019-01-19T23:03:00.771Z,82.37
2019-01-19T23:05:29.692Z,84.62
2019-01-19T23:07:57.704Z,84.32
2019-01-19T23:10:33.525Z,83.82
2019-01-19T23:12:57.032Z,82.88
2019-01-19T23:15:24.620Z,87.12
2019-01-19T23:17:53.882Z,84.42
2019-01-19T23:20:21.245Z,84.40
2019-01-19T23:22:55.214Z,87.80
2019-01-19T23:25:23.364Z,87.85
2019-01-19T23:27:50.884Z,85.60
2019-01-19T23:30:18.429Z,85.20
2019-01-19T23:32:45.045Z,86.30
2019-01-19T23:35:11.691Z,84.13
2019-01-19T23:37:38.402Z,86.45
2019-01-19T23:40:05.000Z,82.17
2019-01-19T23:42:31.589Z,87.45
2019-01-19T23:44:58.224Z,83.10
2019-01-19T23:47:24.801Z,83.55
2019-01-19T23:49:51.385Z,85.83
2019-01-19T23:52:18.008Z,84.87
2019-01-19T23:54:44.604Z,81.63
2019-01-19T23:57:11.183Z,82.55
2019-01-19T23:59:37.887Z,79.62
